Huvudsida
METAR-TAF:

METAR-TAF

Flygplatser :

Treviso, Italien

latitud: 45-41N, longitud: 012-06E, höjd: 45 m

Aktuellt väderrapport

Denna rapport gjordes för 43 minuter sedan, klockan 10:55 UTC
Vind 4 kt från ost
Temperatur 30°C
Fuktighet 66%
Tryck 1012 hPa
Sikt 10 km eller mer
Spridda moln på en höjd av 3000 ft

METAR: LIPS 201055Z 09004KT 9999 SCT030 30/23 Q1012 RMK SCT VIS MIN 9999 WIND THR26 04005KT WIND THR08 06005KT BLU

Tid: 13:38 (11:38 UTC)

Väderprognos

Denna rapport gjordes för 3 timmar och 38 minuter sedan, klockan 08:00 UTC
Prognos gäller från 20 kl. 09 UTC till 20 kl. 18 UTC
Vind 5 kt från ost/nordost
Sikt 10 km eller mer
Spridda moln på en höjd av 3000 ft
Temporärt
från 20 kl. 12 UTC till 20 kl. 18 UTC
Vind 12 kt från syd
Sikt: 5000 m
Spridda moln på en höjd av 2000 ft, Cumulonimbus.
Brutna moln på en höjd av 2500 ft
åska, regn

TAF: LIPS 200800Z 2009/2018 07005KT 9999 SCT030 TEMPO 2012/2018 18012KT 5000 TSRA SCT020CB BKN025

Aktuella väderrapporter och prognoser från 4000 flygplatser (METAR- och TAF-rapporter).

De tillgängliga stationerna syns som gula och röda prickar på kartan.

För musen över prickarna för att se namnen på stationerna.

Klicka sedan för att få väderrapporter och prognoser.

För att ändra kartan: Klicka på de gröna knapparna med ett svart kors på för att zooma in; den gröna knappen med ett streck på för att zooma ut; eller på de gröna pilarna för angränsande kartor.


METAR-TAF: